http://www.schuttertalwetter.de (Christian Eisenberg)
Wetterdaten: aktuell Sonntag, 12.12.2021 17:08
Datum Zeit Temp. A. Luftdruck Regen Wind Richtung Richtung Sonnenschein Solar Windben
12.12.2021 17:08 3,9 C 1029,8 hPa 0,0 l/m 0,0 km/h (0 Bft) S 186 10 min 0 W/m 0,0 km/h (0 Bft)
12.12.2021 16:10 4,4 C 1029,5 hPa 0,0 l/m 3,2 km/h (1 Bft) SO 135 0 min 21 W/m 8,0 km/h (2 Bft)
12.12.2021 15:10 5,5 C 1029,3 hPa 0,0 l/m 0,0 km/h (0 Bft) O-SO 112 10 min 67 W/m 3,2 km/h (1 Bft)
12.12.2021 14:10 4,6 C 1029,3 hPa 0,0 l/m 0,0 km/h (0 Bft) N 0 0 min 65 W/m 0,0 km/h (0 Bft)
12.12.2021 13:10 3,6 C 1029,4 hPa 0,0 l/m 0,0 km/h (0 Bft) S-SO 157 0 min 139 W/m 3,2 km/h (1 Bft)
12.12.2021 12:10 2,5 C 1029,8 hPa 0,0 l/m 0,0 km/h (0 Bft) N 0 0 min 104 W/m 0,0 km/h (0 Bft)
12.12.2021 11:10 1,1 C 1030,0 hPa 0,0 l/m 0,0 km/h (0 Bft) N 0 0 min 77 W/m 0,0 km/h (0 Bft)
12.12.2021 10:10 0,1 C 1030,1 hPa 0,0 l/m 0,0 km/h (0 Bft) N 0 5 min 72 W/m 0,0 km/h (0 Bft)
12.12.2021 09:10 -1,0 C 1030,3 hPa 0,0 l/m 0,0 km/h (0 Bft) N 0 15 min 58 W/m 0,0 km/h (0 Bft)
12.12.2021 08:10 -2,2 C 1029,9 hPa 0,0 l/m 0,0 km/h (0 Bft) N 0 0 min 7 W/m 0,0 km/h (0 Bft)
12.12.2021 07:10 -2,6 C 1029,3 hPa 0,0 l/m 0,0 km/h (0 Bft) N 0 0 min 0 W/m 0,0 km/h (0 Bft)
12.12.2021 06:10 -1,6 C 1029,1 hPa 0,0 l/m 0,0 km/h (0 Bft) S-SO 157 0 min 0 W/m 3,2 km/h (1 Bft)
12.12.2021 05:10 -1,1 C 1028,8 hPa 0,0 l/m 0,0 km/h (0 Bft) S-SO 157 0 min 0 W/m 3,2 km/h (1 Bft)
12.12.2021 04:10 0,3 C 1028,8 hPa 0,0 l/m 1,6 km/h (1 Bft) S-SO 157 0 min 0 W/m 3,2 km/h (1 Bft)
12.12.2021 03:10 1,8 C 1028,5 hPa 0,0 l/m 4,8 km/h (1 Bft) S-SO 157 0 min 0 W/m 4,8 km/h (1 Bft)
12.12.2021 02:10 1,8 C 1028,3 hPa 0,0 l/m 4,8 km/h (1 Bft) SO 135 0 min 0 W/m 8,0 km/h (2 Bft)
12.12.2021 01:10 1,2 C 1027,9 hPa 0,0 l/m 0,0 km/h (0 Bft) N 0 0 min 0 W/m 0,0 km/h (0 Bft)
12.12.2021 00:10 0,8 C 1027,6 hPa 0,0 l/m 0,0 km/h (0 Bft) N 0 0 min 0 W/m 0,0 km/h (0 Bft)
11.12.2021 23:10 0,6 C 1027,4 hPa 0,0 l/m 0,0 km/h (0 Bft) N 0 0 min 0 W/m 0,0 km/h (0 Bft)
11.12.2021 22:10 0,2 C 1026,7 hPa 0,0 l/m 0,0 km/h (0 Bft) N 0 0 min 0 W/m 0,0 km/h (0 Bft)
11.12.2021 21:10 0,3 C 1026,3 hPa 0,0 l/m 0,0 km/h (0 Bft) N 0 0 min 0 W/m 0,0 km/h (0 Bft)
11.12.2021 20:10 0,9 C 1025,6 hPa 0,0 l/m 0,0 km/h (0 Bft) N 0 0 min 0 W/m 0,0 km/h (0 Bft)
11.12.2021 19:10 2,7 C 1024,8 hPa 0,0 l/m 4,8 km/h (1 Bft) SO 135 0 min 0 W/m 8,0 km/h (2 Bft)
11.12.2021 18:10 2,7 C 1024,1 hPa 0,0 l/m 4,8 km/h (1 Bft) SO 135 0 min 0 W/m 6,4 km/h (2 Bft)
11.12.2021 18:00 2,6 C 1023,9 hPa 0,0 l/m 1,6 km/h (1 Bft) SO 135 0 min 0 W/m 6,4 km/h (2 Bft)
_ Min-Zeit 07:30 18:00 - 17:08 - - - - 17:08
Minimum _ -2,8 C 1023,9 hPa - 0,0 km/h (0 Bft) - - - - 0,0 km/h (0 Bft)
_ Max-Zeit 15:10 10:05 17:08 02:50 - - 16:20 13:15 16:05
Maximum _ 5,5 C 1030,3 hPa 0,0 l/m 6,4 km/h
S-SO (2 Bft)
- - 5 min 141 W/m 11,3 km/h
SO (2 Bft)
Durchschnitt _ 1,3 C 1028,1 hPa #0,0 l/m 1,0 km/h (0 Bft) SO - #40 min. 70 W/m 2,5 km/h (1 Bft)